sensor_id;sensor_type;location;lat;lon;timestamp;pressure;altitude;pressure_sealevel;temperature;humidity
47967;BME280;33733;52.456;13.620;2024-01-25T00:01:56;101254.72;;;9.53;56.21
47967;BME280;33733;52.456;13.620;2024-01-25T00:04:24;101257.78;;;9.61;56.51
47967;BME280;33733;52.456;13.620;2024-01-25T00:06:51;101263.00;;;9.76;55.82
47967;BME280;33733;52.456;13.620;2024-01-25T00:09:18;101268.91;;;9.66;56.59
47967;BME280;33733;52.456;13.620;2024-01-25T00:11:46;101254.44;;;9.73;56.44
47967;BME280;33733;52.456;13.620;2024-01-25T00:14:13;101260.81;;;9.69;56.87
47967;BME280;33733;52.456;13.620;2024-01-25T00:16:41;101254.72;;;9.53;57.38
47967;BME280;33733;52.456;13.620;2024-01-25T00:19:09;101260.50;;;9.43;57.86
47967;BME280;33733;52.456;13.620;2024-01-25T00:21:41;101257.56;;;9.34;58.42
47967;BME280;33733;52.456;13.620;2024-01-25T00:24:12;101287.44;;;9.33;58.31
47967;BME280;33733;52.456;13.620;2024-01-25T00:26:40;101266.53;;;9.46;58.21
47967;BME280;33733;52.456;13.620;2024-01-25T00:29:07;101265.88;;;9.11;59.05
47967;BME280;33733;52.456;13.620;2024-01-25T00:31:34;101267.66;;;9.26;59.22
47967;BME280;33733;52.456;13.620;2024-01-25T00:34:02;101275.28;;;9.46;58.91
47967;BME280;33733;52.456;13.620;2024-01-25T00:36:30;101274.44;;;9.30;59.11
47967;BME280;33733;52.456;13.620;2024-01-25T00:38:58;101280.88;;;9.56;58.72
47967;BME280;33733;52.456;13.620;2024-01-25T00:41:25;101279.53;;;9.33;59.48
47967;BME280;33733;52.456;13.620;2024-01-25T00:43:53;101273.50;;;9.62;58.92
47967;BME280;33733;52.456;13.620;2024-01-25T00:46:20;101271.56;;;9.50;58.41
47967;BME280;33733;52.456;13.620;2024-01-25T00:48:48;101261.94;;;9.49;59.05
47967;BME280;33733;52.456;13.620;2024-01-25T00:51:21;101254.66;;;9.38;59.17
47967;BME280;33733;52.456;13.620;2024-01-25T00:53:50;101262.81;;;9.50;59.02
47967;BME280;33733;52.456;13.620;2024-01-25T00:56:17;101266.53;;;9.46;59.16
47967;BME280;33733;52.456;13.620;2024-01-25T00:58:45;101277.50;;;9.38;59.06
47967;BME280;33733;52.456;13.620;2024-01-25T01:01:13;101281.00;;;9.23;59.84
47967;BME280;33733;52.456;13.620;2024-01-25T01:03:40;101266.97;;;9.38;59.43
47967;BME280;33733;52.456;13.620;2024-01-25T01:06:08;101272.06;;;9.25;59.40
47967;BME280;33733;52.456;13.620;2024-01-25T01:08:36;101274.38;;;9.31;59.28
47967;BME280;33733;52.456;13.620;2024-01-25T01:11:04;101270.47;;;9.07;59.56
47967;BME280;33733;52.456;13.620;2024-01-25T01:13:31;101276.72;;;9.20;59.60
47967;BME280;33733;52.456;13.620;2024-01-25T01:15:59;101269.38;;;9.27;59.53
47967;BME280;33733;52.456;13.620;2024-01-25T01:18:26;101276.16;;;9.31;59.18
47967;BME280;33733;52.456;13.620;2024-01-25T01:20:54;101272.91;;;9.26;59.30
47967;BME280;33733;52.456;13.620;2024-01-25T01:23:21;101283.88;;;9.50;58.65
47967;BME280;33733;52.456;13.620;2024-01-25T01:25:48;101271.31;;;9.23;58.92
47967;BME280;33733;52.456;13.620;2024-01-25T01:28:15;101274.38;;;9.31;59.05
47967;BME280;33733;52.456;13.620;2024-01-25T01:30:43;101275.13;;;9.49;57.95
47967;BME280;33733;52.456;13.620;2024-01-25T01:33:11;101269.94;;;9.48;58.35
47967;BME280;33733;52.456;13.620;2024-01-25T01:35:38;101282.34;;;9.30;58.41
47967;BME280;33733;52.456;13.620;2024-01-25T01:38:06;101286.69;;;9.47;58.07
47967;BME280;33733;52.456;13.620;2024-01-25T01:40:33;101289.75;;;9.23;58.60
47967;BME280;33733;52.456;13.620;2024-01-25T01:43:01;101298.38;;;9.57;57.71
47967;BME280;33733;52.456;13.620;2024-01-25T01:45:29;101295.31;;;9.17;59.02
47967;BME280;33733;52.456;13.620;2024-01-25T01:47:56;101308.97;;;9.08;58.82
47967;BME280;33733;52.456;13.620;2024-01-25T01:50:24;101304.50;;;9.41;58.30
47967;BME280;33733;52.456;13.620;2024-01-25T01:52:52;101324.78;;;9.24;58.51
47967;BME280;33733;52.456;13.620;2024-01-25T01:55:20;101319.94;;;9.16;58.66
47967;BME280;33733;52.456;13.620;2024-01-25T01:57:48;101313.13;;;9.12;59.02
47967;BME280;33733;52.456;13.620;2024-01-25T02:00:16;101337.34;;;9.03;59.42
47967;BME280;33733;52.456;13.620;2024-01-25T02:02:44;101317.97;;;9.04;59.40
47967;BME280;33733;52.456;13.620;2024-01-25T02:05:12;101322.44;;;9.35;58.58
47967;BME280;33733;52.456;13.620;2024-01-25T02:07:40;101325.75;;;9.38;58.31
47967;BME280;33733;52.456;13.620;2024-01-25T02:10:09;101345.16;;;9.36;58.05
47967;BME280;33733;52.456;13.620;2024-01-25T02:12:37;101335.41;;;9.22;58.61
47967;BME280;33733;52.456;13.620;2024-01-25T02:15:05;101341.44;;;9.40;58.32
47967;BME280;33733;52.456;13.620;2024-01-25T02:17:32;101348.66;;;9.36;58.20
47967;BME280;33733;52.456;13.620;2024-01-25T02:20:00;101338.09;;;9.21;58.53
47967;BME280;33733;52.456;13.620;2024-01-25T02:22:30;101331.44;;;9.31;58.42
47967;BME280;33733;52.456;13.620;2024-01-25T02:24:57;101329.06;;;9.42;58.63
47967;BME280;33733;52.456;13.620;2024-01-25T02:27:24;101334.63;;;9.52;58.20
47967;BME280;33733;52.456;13.620;2024-01-25T02:29:51;101330.34;;;9.51;57.98
47967;BME280;33733;52.456;13.620;2024-01-25T02:32:18;101339.09;;;9.35;57.98
47967;BME280;33733;52.456;13.620;2024-01-25T02:34:46;101324.78;;;9.24;58.47
47967;BME280;33733;52.456;13.620;2024-01-25T02:37:14;101320.06;;;9.30;58.84
47967;BME280;33733;52.456;13.620;2024-01-25T02:39:41;101311.91;;;9.35;58.56
47967;BME280;33733;52.456;13.620;2024-01-25T02:42:09;101332.84;;;9.21;59.02
47967;BME280;33733;52.456;13.620;2024-01-25T02:44:36;101330.63;;;9.13;59.11
47967;BME280;33733;52.456;13.620;2024-01-25T02:47:03;101322.06;;;9.25;58.82
47967;BME280;33733;52.456;13.620;2024-01-25T02:49:30;101320.75;;;9.01;58.88
47967;BME280;33733;52.456;13.620;2024-01-25T02:51:58;101320.44;;;8.91;59.94
47967;BME280;33733;52.456;13.620;2024-01-25T02:54:25;101332.81;;;9.05;59.02
47967;BME280;33733;52.456;13.620;2024-01-25T02:56:53;101333.06;;;9.01;59.35
47967;BME280;33733;52.456;13.620;2024-01-25T02:59:20;101333.53;;;9.24;59.17
47967;BME280;33733;52.456;13.620;2024-01-25T03:01:48;101341.66;;;9.20;58.99
47967;BME280;33733;52.456;13.620;2024-01-25T03:04:16;101331.19;;;9.35;59.06
47967;BME280;33733;52.456;13.620;2024-01-25T03:06:43;101327.84;;;9.32;58.90
47967;BME280;33733;52.456;13.620;2024-01-25T03:09:11;101337.44;;;9.17;59.80
47967;BME280;33733;52.456;13.620;2024-01-25T03:11:38;101318.03;;;9.35;59.16
47967;BME280;33733;52.456;13.620;2024-01-25T03:14:05;101330.03;;;9.24;58.53
47967;BME280;33733;52.456;13.620;2024-01-25T03:16:32;101347.97;;;9.17;59.07
47967;BME280;33733;52.456;13.620;2024-01-25T03:19:00;101332.84;;;9.21;58.47
47967;BME280;33733;52.456;13.620;2024-01-25T03:21:27;101344.56;;;9.15;58.78
47967;BME280;33733;52.456;13.620;2024-01-25T03:23:54;101350.06;;;9.11;58.77
47967;BME280;33733;52.456;13.620;2024-01-25T03:26:21;101344.28;;;9.20;58.64
47967;BME280;33733;52.456;13.620;2024-01-25T03:28:48;101346.66;;;9.09;58.38
47967;BME280;33733;52.456;13.620;2024-01-25T03:31:16;101348.59;;;9.05;58.54
47967;BME280;33733;52.456;13.620;2024-01-25T03:33:43;101367.38;;;8.99;58.61
47967;BME280;33733;52.456;13.620;2024-01-25T03:36:13;101347.72;;;8.89;58.56
47967;BME280;33733;52.456;13.620;2024-01-25T03:38:41;101341.56;;;9.06;58.00
47967;BME280;33733;52.456;13.620;2024-01-25T03:41:10;101362.41;;;8.93;58.78
47967;BME280;33733;52.456;13.620;2024-01-25T03:43:38;101358.81;;;9.11;58.05
47967;BME280;33733;52.456;13.620;2024-01-25T03:46:11;101362.56;;;9.07;57.71
47967;BME280;33733;52.456;13.620;2024-01-25T03:48:39;101359.25;;;9.04;57.85
47967;BME280;33733;52.456;13.620;2024-01-25T03:51:09;101358.53;;;9.00;58.36
47967;BME280;33733;52.456;13.620;2024-01-25T03:53:37;101370.03;;;9.15;58.05
47967;BME280;33733;52.456;13.620;2024-01-25T03:56:10;101382.03;;;9.36;57.40
47967;BME280;33733;52.456;13.620;2024-01-25T03:58:38;101378.88;;;9.29;57.41
47967;BME280;33733;52.456;13.620;2024-01-25T04:01:05;101386.19;;;8.91;58.41
47967;BME280;33733;52.456;13.620;2024-01-25T04:03:32;101388.53;;;8.96;58.57
47967;BME280;33733;52.456;13.620;2024-01-25T04:06:00;101395.09;;;9.22;57.84
47967;BME280;33733;52.456;13.620;2024-01-25T04:08:27;101387.06;;;9.08;57.87
47967;BME280;33733;52.456;13.620;2024-01-25T04:10:54;101399.19;;;9.27;57.50
47967;BME280;33733;52.456;13.620;2024-01-25T04:13:22;101403.03;;;9.20;57.59
47967;BME280;33733;52.456;13.620;2024-01-25T04:15:49;101400.72;;;9.31;57.23
47967;BME280;33733;52.456;13.620;2024-01-25T04:18:16;101395.31;;;9.17;57.30
47967;BME280;33733;52.456;13.620;2024-01-25T04:20:44;101403.38;;;9.14;57.63
47967;BME280;33733;52.456;13.620;2024-01-25T04:23:11;101403.75;;;8.91;57.99
47967;BME280;33733;52.456;13.620;2024-01-25T04:25:38;101409.06;;;9.07;57.67
47967;BME280;33733;52.456;13.620;2024-01-25T04:28:06;101435.53;;;9.04;58.08
47967;BME280;33733;52.456;13.620;2024-01-25T04:30:33;101437.75;;;9.11;57.87
47967;BME280;33733;52.456;13.620;2024-01-25T04:33:02;101418.28;;;8.98;58.14
47967;BME280;33733;52.456;13.620;2024-01-25T04:35:29;101426.16;;;9.15;57.67
47967;BME280;33733;52.456;13.620;2024-01-25T04:37:58;101427.69;;;9.19;57.37
47967;BME280;33733;52.456;13.620;2024-01-25T04:40:26;101426.19;;;9.31;56.95
47967;BME280;33733;52.456;13.620;2024-01-25T04:42:54;101441.44;;;9.24;57.55
47967;BME280;33733;52.456;13.620;2024-01-25T04:45:21;101428.28;;;9.24;57.36
47967;BME280;33733;52.456;13.620;2024-01-25T04:47:48;101430.44;;;9.16;57.89
47967;BME280;33733;52.456;13.620;2024-01-25T04:50:16;101432.78;;;9.22;57.65
47967;BME280;33733;52.456;13.620;2024-01-25T04:52:44;101440.09;;;9.33;57.59
47967;BME280;33733;52.456;13.620;2024-01-25T04:55:11;101457.22;;;9.24;57.59
47967;BME280;33733;52.456;13.620;2024-01-25T04:57:38;101456.63;;;9.19;58.00
47967;BME280;33733;52.456;13.620;2024-01-25T05:00:06;101451.66;;;9.30;57.91
47967;BME280;33733;52.456;13.620;2024-01-25T05:02:34;101449.03;;;9.30;58.11
47967;BME280;33733;52.456;13.620;2024-01-25T05:05:01;101445.28;;;9.34;57.07
47967;BME280;33733;52.456;13.620;2024-01-25T05:07:28;101437.50;;;9.49;57.21
47967;BME280;33733;52.456;13.620;2024-01-25T05:09:57;101446.41;;;9.46;57.00
47967;BME280;33733;52.456;13.620;2024-01-25T05:12:24;101439.81;;;9.22;57.37
47967;BME280;33733;52.456;13.620;2024-01-25T05:14:52;101448.41;;;9.25;57.36
47967;BME280;33733;52.456;13.620;2024-01-25T05:17:19;101461.94;;;9.35;57.62
47967;BME280;33733;52.456;13.620;2024-01-25T05:19:46;101462.06;;;9.32;57.79
47967;BME280;33733;52.456;13.620;2024-01-25T05:22:14;101471.56;;;9.19;57.74
47967;BME280;33733;52.456;13.620;2024-01-25T05:24:41;101476.22;;;9.14;58.34
47967;BME280;33733;52.456;13.620;2024-01-25T05:27:09;101485.03;;;9.13;58.36
47967;BME280;33733;52.456;13.620;2024-01-25T05:29:36;101489.31;;;9.15;58.13
47967;BME280;33733;52.456;13.620;2024-01-25T05:32:04;101506.63;;;9.19;58.26
47967;BME280;33733;52.456;13.620;2024-01-25T05:34:31;101505.03;;;9.00;58.36
47967;BME280;33733;52.456;13.620;2024-01-25T05:36:59;101522.81;;;8.94;59.13
47967;BME280;33733;52.456;13.620;2024-01-25T05:39:26;101512.41;;;9.26;57.95
47967;BME280;33733;52.456;13.620;2024-01-25T05:41:54;101492.00;;;9.14;58.34
47967;BME280;33733;52.456;13.620;2024-01-25T05:44:21;101525.19;;;9.16;57.86
47967;BME280;33733;52.456;13.620;2024-01-25T05:46:48;101502.91;;;9.06;58.24
47967;BME280;33733;52.456;13.620;2024-01-25T05:49:15;101509.84;;;9.24;58.24
47967;BME280;33733;52.456;13.620;2024-01-25T05:51:43;101512.06;;;8.99;58.49
47967;BME280;33733;52.456;13.620;2024-01-25T05:54:11;101502.91;;;9.23;58.20
47967;BME280;33733;52.456;13.620;2024-01-25T05:56:38;101512.34;;;9.27;57.62
47967;BME280;33733;52.456;13.620;2024-01-25T05:59:05;101518.84;;;9.20;57.68
47967;BME280;33733;52.456;13.620;2024-01-25T06:01:32;101535.72;;;9.33;56.77
47967;BME280;33733;52.456;13.620;2024-01-25T06:03:59;101522.13;;;8.91;57.40
47967;BME280;33733;52.456;13.620;2024-01-25T06:06:27;101523.34;;;9.01;57.69
47967;BME280;33733;52.456;13.620;2024-01-25T06:08:54;101525.72;;;8.71;58.27
47967;BME280;33733;52.456;13.620;2024-01-25T06:11:37;101529.22;;;9.06;57.02
47967;BME280;33733;52.456;13.620;2024-01-25T06:14:08;101528.84;;;9.14;57.12
47967;BME280;33733;52.456;13.620;2024-01-25T06:16:36;101547.41;;;9.28;57.29
47967;BME280;33733;52.456;13.620;2024-01-25T06:19:03;101557.16;;;8.91;57.60
47967;BME280;33733;52.456;13.620;2024-01-25T06:21:31;101556.91;;;8.79;57.94
47967;BME280;33733;52.456;13.620;2024-01-25T06:24:04;101564.34;;;9.05;57.35
47967;BME280;33733;52.456;13.620;2024-01-25T06:26:32;101562.72;;;9.20;56.72
47967;BME280;33733;52.456;13.620;2024-01-25T06:29:00;101571.72;;;9.33;56.49
47967;BME280;33733;52.456;13.620;2024-01-25T06:31:27;101573.13;;;9.23;56.62
47967;BME280;33733;52.456;13.620;2024-01-25T06:33:55;101579.38;;;9.37;56.13
47967;BME280;33733;52.456;13.620;2024-01-25T06:36:22;101563.44;;;9.06;57.04
47967;BME280;33733;52.456;13.620;2024-01-25T06:38:49;101586.41;;;9.20;56.82
47967;BME280;33733;52.456;13.620;2024-01-25T06:41:16;101579.13;;;8.90;57.28
47967;BME280;33733;52.456;13.620;2024-01-25T06:43:44;101585.34;;;9.07;57.01
47967;BME280;33733;52.456;13.620;2024-01-25T06:46:11;101588.97;;;9.21;56.94
47967;BME280;33733;52.456;13.620;2024-01-25T06:48:38;101588.81;;;9.07;57.44
47967;BME280;33733;52.456;13.620;2024-01-25T06:51:05;101609.75;;;9.27;56.55
47967;BME280;33733;52.456;13.620;2024-01-25T06:53:33;101622.34;;;9.04;57.14
47967;BME280;33733;52.456;13.620;2024-01-25T06:56:00;101629.28;;;9.05;57.04
47967;BME280;33733;52.456;13.620;2024-01-25T06:58:27;101627.88;;;8.98;56.82
47967;BME280;33733;52.456;13.620;2024-01-25T07:00:55;101629.22;;;9.06;56.73
47967;BME280;33733;52.456;13.620;2024-01-25T07:03:22;101623.19;;;9.21;56.51
47967;BME280;33733;52.456;13.620;2024-01-25T07:05:50;101628.69;;;9.17;56.61
47967;BME280;33733;52.456;13.620;2024-01-25T07:08:17;101640.91;;;9.18;56.63
47967;BME280;33733;52.456;13.620;2024-01-25T07:10:45;101647.56;;;9.25;56.24
47967;BME280;33733;52.456;13.620;2024-01-25T07:13:12;101654.78;;;9.21;56.71
47967;BME280;33733;52.456;13.620;2024-01-25T07:15:40;101644.72;;;9.29;56.23
47967;BME280;33733;52.456;13.620;2024-01-25T07:18:08;101649.06;;;9.30;56.27
47967;BME280;33733;52.456;13.620;2024-01-25T07:20:35;101644.69;;;9.12;56.76
47967;BME280;33733;52.456;13.620;2024-01-25T07:23:03;101662.97;;;9.15;56.81
47967;BME280;33733;52.456;13.620;2024-01-25T07:25:30;101668.31;;;9.14;57.00
47967;BME280;33733;52.456;13.620;2024-01-25T07:27:57;101664.75;;;9.15;56.01
47967;BME280;33733;52.456;13.620;2024-01-25T07:30:24;101679.69;;;9.14;56.44
47967;BME280;33733;52.456;13.620;2024-01-25T07:32:52;101671.38;;;9.05;57.27
47967;BME280;33733;52.456;13.620;2024-01-25T07:35:19;101669.06;;;9.16;56.76
47967;BME280;33733;52.456;13.620;2024-01-25T07:37:47;101687.16;;;9.05;57.33
47967;BME280;33733;52.456;13.620;2024-01-25T07:40:14;101686.66;;;8.96;57.38
47967;BME280;33733;52.456;13.620;2024-01-25T07:42:41;101673.81;;;9.26;56.83
47967;BME280;33733;52.456;13.620;2024-01-25T07:45:09;101677.84;;;9.33;56.66
47967;BME280;33733;52.456;13.620;2024-01-25T07:47:36;101679.94;;;9.27;56.65
47967;BME280;33733;52.456;13.620;2024-01-25T07:50:04;101680.66;;;9.48;56.36
47967;BME280;33733;52.456;13.620;2024-01-25T07:52:31;101681.38;;;9.51;56.39
47967;BME280;33733;52.456;13.620;2024-01-25T07:54:59;101683.28;;;9.48;55.94
47967;BME280;33733;52.456;13.620;2024-01-25T07:57:28;101686.22;;;9.41;56.10
47967;BME280;33733;52.456;13.620;2024-01-25T07:59:55;101701.44;;;9.54;56.18
47967;BME280;33733;52.456;13.620;2024-01-25T08:02:22;101701.00;;;9.27;56.76
47967;BME280;33733;52.456;13.620;2024-01-25T08:04:50;101709.28;;;9.19;57.05
47967;BME280;33733;52.456;13.620;2024-01-25T08:07:18;101710.63;;;9.09;56.62
47967;BME280;33733;52.456;13.620;2024-01-25T08:09:45;101706.00;;;9.14;56.55
47967;BME280;33733;52.456;13.620;2024-01-25T08:12:12;101714.97;;;9.10;56.73
47967;BME280;33733;52.456;13.620;2024-01-25T08:14:39;101701.31;;;9.02;57.22
47967;BME280;33733;52.456;13.620;2024-01-25T08:17:07;101722.88;;;9.10;56.89
47967;BME280;33733;52.456;13.620;2024-01-25T08:19:34;101731.03;;;9.23;56.69
47967;BME280;33733;52.456;13.620;2024-01-25T08:22:02;101724.16;;;9.02;57.09
47967;BME280;33733;52.456;13.620;2024-01-25T08:24:29;101744.19;;;9.23;56.42
47967;BME280;33733;52.456;13.620;2024-01-25T08:26:56;101747.00;;;9.37;56.28
47967;BME280;33733;52.456;13.620;2024-01-25T08:29:23;101748.50;;;9.24;56.58
47967;BME280;33733;52.456;13.620;2024-01-25T08:31:51;101744.47;;;9.35;56.62
47967;BME280;33733;52.456;13.620;2024-01-25T08:34:18;101766.59;;;9.13;56.56
47967;BME280;33733;52.456;13.620;2024-01-25T08:36:45;101768.56;;;9.08;57.25
47967;BME280;33733;52.456;13.620;2024-01-25T08:39:13;101758.28;;;9.22;56.73
47967;BME280;33733;52.456;13.620;2024-01-25T08:41:41;101753.31;;;8.78;57.19
47967;BME280;33733;52.456;13.620;2024-01-25T08:44:09;101754.56;;;8.88;57.17
47967;BME280;33733;52.456;13.620;2024-01-25T08:46:36;101768.72;;;9.05;57.24
47967;BME280;33733;52.456;13.620;2024-01-25T08:49:04;101747.47;;;9.09;57.45
47967;BME280;33733;52.456;13.620;2024-01-25T08:51:36;101768.66;;;9.25;57.30
47967;BME280;33733;52.456;13.620;2024-01-25T08:54:03;101765.28;;;9.40;56.16
47967;BME280;33733;52.456;13.620;2024-01-25T08:56:30;101760.78;;;9.06;57.02
47967;BME280;33733;52.456;13.620;2024-01-25T08:58:57;101773.41;;;9.17;56.42
47967;BME280;33733;52.456;13.620;2024-01-25T09:01:25;101789.00;;;9.21;56.48
47967;BME280;33733;52.456;13.620;2024-01-25T09:03:52;101777.81;;;9.16;56.80
47967;BME280;33733;52.456;13.620;2024-01-25T09:06:19;101764.88;;;9.30;56.14
47967;BME280;33733;52.456;13.620;2024-01-25T09:08:47;101778.16;;;9.46;55.90
47967;BME280;33733;52.456;13.620;2024-01-25T09:11:14;101774.13;;;9.20;56.30
47967;BME280;33733;52.456;13.620;2024-01-25T09:13:41;101785.34;;;9.24;56.51
47967;BME280;33733;52.456;13.620;2024-01-25T09:16:13;101779.88;;;9.47;56.08
47967;BME280;33733;52.456;13.620;2024-01-25T09:18:41;101792.47;;;9.40;55.53
47967;BME280;33733;52.456;13.620;2024-01-25T09:21:09;101794.97;;;9.25;56.06
47967;BME280;33733;52.456;13.620;2024-01-25T09:23:36;101804.91;;;9.37;55.76
47967;BME280;33733;52.456;13.620;2024-01-25T09:26:03;101806.22;;;9.47;55.26
47967;BME280;33733;52.456;13.620;2024-01-25T09:28:30;101818.41;;;9.48;55.71
47967;BME280;33733;52.456;13.620;2024-01-25T09:30:58;101814.75;;;9.33;55.56
47967;BME280;33733;52.456;13.620;2024-01-25T09:33:26;101820.38;;;9.26;56.29
47967;BME280;33733;52.456;13.620;2024-01-25T09:35:53;101814.09;;;9.28;56.09
47967;BME280;33733;52.456;13.620;2024-01-25T09:38:21;101832.97;;;9.38;56.18
47967;BME280;33733;52.456;13.620;2024-01-25T09:40:49;101821.06;;;9.48;55.56
47967;BME280;33733;52.456;13.620;2024-01-25T09:43:18;101832.88;;;9.21;56.25
47967;BME280;33733;52.456;13.620;2024-01-25T09:45:48;101825.78;;;9.41;55.96
47967;BME280;33733;52.456;13.620;2024-01-25T09:48:17;101843.19;;;9.07;56.77
47967;BME280;33733;52.456;13.620;2024-01-25T09:50:48;101836.94;;;9.28;56.18
47967;BME280;33733;52.456;13.620;2024-01-25T09:53:23;101841.63;;;9.40;56.26
47967;BME280;33733;52.456;13.620;2024-01-25T09:56:05;101847.88;;;9.56;55.59
47967;BME280;33733;52.456;13.620;2024-01-25T10:01:08;101846.63;;;9.27;56.17
47967;BME280;33733;52.456;13.620;2024-01-25T10:03:46;101858.38;;;9.39;55.99
47967;BME280;33733;52.456;13.620;2024-01-25T10:06:15;101849.19;;;9.29;56.67
47967;BME280;33733;52.456;13.620;2024-01-25T10:08:44;101854.13;;;8.98;56.96
47967;BME280;33733;52.456;13.620;2024-01-25T10:11:11;101860.09;;;9.01;57.41
47967;BME280;33733;52.456;13.620;2024-01-25T10:13:42;101845.19;;;9.20;56.85
47967;BME280;33733;52.456;13.620;2024-01-25T10:16:14;101865.25;;;9.23;57.12
47967;BME280;33733;52.456;13.620;2024-01-25T10:18:43;101850.81;;;9.13;57.00
47967;BME280;33733;52.456;13.620;2024-01-25T10:21:13;101861.56;;;9.27;56.71
47967;BME280;33733;52.456;13.620;2024-01-25T10:23:44;101863.41;;;9.25;56.70
47967;BME280;33733;52.456;13.620;2024-01-25T10:26:12;101868.03;;;9.38;56.25
47967;BME280;33733;52.456;13.620;2024-01-25T10:28:39;101873.38;;;9.18;56.74
47967;BME280;33733;52.456;13.620;2024-01-25T10:31:07;101885.88;;;9.32;56.10
47967;BME280;33733;52.456;13.620;2024-01-25T10:33:37;101894.09;;;9.06;57.32
47967;BME280;33733;52.456;13.620;2024-01-25T10:36:08;101898.13;;;9.14;57.11
47967;BME280;33733;52.456;13.620;2024-01-25T10:38:35;101899.38;;;9.24;56.78
47967;BME280;33733;52.456;13.620;2024-01-25T10:41:05;101898.81;;;9.18;57.25
47967;BME280;33733;52.456;13.620;2024-01-25T10:43:33;101903.59;;;9.28;57.21
47967;BME280;33733;52.456;13.620;2024-01-25T10:46:01;101900.03;;;9.48;56.69
47967;BME280;33733;52.456;13.620;2024-01-25T10:48:31;101897.72;;;9.42;56.77
47967;BME280;33733;52.456;13.620;2024-01-25T10:50:59;101901.03;;;9.64;56.30
47967;BME280;33733;52.456;13.620;2024-01-25T10:53:32;101892.38;;;9.62;56.44
47967;BME280;33733;52.456;13.620;2024-01-25T10:56:01;101895.41;;;9.72;56.27
47967;BME280;33733;52.456;13.620;2024-01-25T10:58:32;101898.69;;;9.77;56.57
47967;BME280;33733;52.456;13.620;2024-01-25T11:01:09;101895.66;;;9.67;55.36
47967;BME280;33733;52.456;13.620;2024-01-25T11:03:45;101901.63;;;9.52;55.62
47967;BME280;33733;52.456;13.620;2024-01-25T11:06:14;101907.03;;;9.49;56.36
47967;BME280;33733;52.456;13.620;2024-01-25T11:08:42;101909.66;;;9.68;55.40
47967;BME280;33733;52.456;13.620;2024-01-25T11:11:14;101905.81;;;9.37;56.23
47967;BME280;33733;52.456;13.620;2024-01-25T11:13:42;101902.41;;;9.54;55.90
47967;BME280;33733;52.456;13.620;2024-01-25T11:16:28;101902.31;;;9.56;55.68
47967;BME280;33733;52.456;13.620;2024-01-25T11:18:57;101895.44;;;9.53;56.23
47967;BME280;33733;52.456;13.620;2024-01-25T11:24:05;101896.34;;;9.71;55.47
47967;BME280;33733;52.456;13.620;2024-01-25T11:26:32;101896.75;;;9.80;55.03
47967;BME280;33733;52.456;13.620;2024-01-25T11:29:00;101895.16;;;9.59;55.37
47967;BME280;33733;52.456;13.620;2024-01-25T11:31:27;101895.50;;;9.70;55.88
47967;BME280;33733;52.456;13.620;2024-01-25T11:33:59;101897.09;;;9.91;55.07
47967;BME280;33733;52.456;13.620;2024-01-25T11:36:28;101901.75;;;9.30;56.12
47967;BME280;33733;52.456;13.620;2024-01-25T11:38:55;101906.25;;;9.47;56.23
47967;BME280;33733;52.456;13.620;2024-01-25T11:41:24;101916.84;;;9.64;56.02
47967;BME280;33733;52.456;13.620;2024-01-25T11:43:52;101913.00;;;9.71;55.96
47967;BME280;33733;52.456;13.620;2024-01-25T11:46:19;101909.91;;;9.63;56.21
47967;BME280;33733;52.456;13.620;2024-01-25T11:48:47;101897.63;;;9.43;56.42
47967;BME280;33733;52.456;13.620;2024-01-25T11:51:15;101903.41;;;9.70;56.09
47967;BME280;33733;52.456;13.620;2024-01-25T11:53:42;101907.44;;;9.77;55.69
47967;BME280;33733;52.456;13.620;2024-01-25T11:56:15;101906.59;;;10.13;55.11
47967;BME280;33733;52.456;13.620;2024-01-25T11:58:45;101911.47;;;10.22;54.66
47967;BME280;33733;52.456;13.620;2024-01-25T12:01:13;101914.31;;;10.17;54.13
47967;BME280;33733;52.456;13.620;2024-01-25T12:03:41;101899.16;;;10.22;53.73
47967;BME280;33733;52.456;13.620;2024-01-25T12:06:09;101918.53;;;10.21;53.78
47967;BME280;33733;52.456;13.620;2024-01-25T12:08:36;101918.28;;;10.43;53.95
47967;BME280;33733;52.456;13.620;2024-01-25T12:11:06;101915.22;;;10.35;53.09
47967;BME280;33733;52.456;13.620;2024-01-25T12:13:43;101909.84;;;10.01;53.72
47967;BME280;33733;52.456;13.620;2024-01-25T12:16:12;101910.97;;;10.14;53.11
47967;BME280;33733;52.456;13.620;2024-01-25T12:18:41;101906.66;;;10.30;52.87
47967;BME280;33733;52.456;13.620;2024-01-25T12:21:09;101900.00;;;10.40;52.34
47967;BME280;33733;52.456;13.620;2024-01-25T12:23:37;101900.25;;;10.53;52.09
47967;BME280;33733;52.456;13.620;2024-01-25T12:26:07;101907.84;;;10.59;51.66
47967;BME280;33733;52.456;13.620;2024-01-25T12:28:36;101918.53;;;10.56;51.46
47967;BME280;33733;52.456;13.620;2024-01-25T12:31:05;101911.25;;;10.44;51.53
47967;BME280;33733;52.456;13.620;2024-01-25T12:33:33;101919.06;;;10.28;52.34
47967;BME280;33733;52.456;13.620;2024-01-25T12:36:02;101918.94;;;10.65;51.94
47967;BME280;33733;52.456;13.620;2024-01-25T12:38:30;101916.88;;;10.88;51.09
47967;BME280;33733;52.456;13.620;2024-01-25T12:41:00;101921.00;;;11.10;50.76
47967;BME280;33733;52.456;13.620;2024-01-25T12:43:28;101923.03;;;10.88;50.55
47967;BME280;33733;52.456;13.620;2024-01-25T12:45:57;101911.03;;;10.82;50.72
47967;BME280;33733;52.456;13.620;2024-01-25T12:48:35;101901.00;;;10.72;51.10
47967;BME280;33733;52.456;13.620;2024-01-25T12:51:02;101911.78;;;10.67;51.17
47967;BME280;33733;52.456;13.620;2024-01-25T12:53:29;101898.16;;;10.42;51.76
47967;BME280;33733;52.456;13.620;2024-01-25T12:55:57;101903.94;;;10.31;52.11
47967;BME280;33733;52.456;13.620;2024-01-25T12:58:24;101888.19;;;10.64;51.47
47967;BME280;33733;52.456;13.620;2024-01-25T13:00:52;101892.63;;;10.64;51.35